Time;durP1;ratioP1;P1;durP2;ratioP2;P2;SDS_P1;SDS_P2;PMS_P1;PMS_P2;Temp;Humidity;BMP_temperature;BMP_pressure;BME280_temperature;BME280_humidity;BME280_pressure;Samples;Min_cycle;Max_cycle;Signal;HPM_P1;HPM_P2
2024/04/01 00:01:54;;;;;;;25.60;5.80;;;;;;;21.84;38.24;99623.02;108035;1258;68846;-70
2024/04/01 00:04:22;;;;;;;26.90;6.20;;;;;;;21.83;38.37;99618.83;108017;1254;71239;-69
2024/04/01 00:06:49;;;;;;;25.20;4.20;;;;;;;21.52;38.85;99613.61;108037;1259;61160;-67
2024/04/01 00:09:16;;;;;;;39.10;5.30;;;;;;;21.45;39.11;99612.61;108073;1254;61179;-70
2024/04/01 00:11:44;;;;;;;25.30;5.10;;;;;;;21.77;38.53;99609.52;108066;1254;74934;-70
2024/04/01 00:14:11;;;;;;;27.30;6.00;;;;;;;21.73;38.61;99607.19;108041;1259;70689;-69
2024/04/01 00:16:38;;;;;;;24.80;6.20;;;;;;;21.68;38.70;99607.69;108081;1255;72468;-67
2024/04/01 00:19:07;;;;;;;28.00;6.10;;;;;;;21.65;38.66;99604.79;108106;1254;61835;-64
2024/04/01 00:21:34;;;;;;;31.80;5.70;;;;;;;21.67;38.72;99601.48;108082;1254;61345;-67
2024/04/01 00:24:01;;;;;;;32.10;6.00;;;;;;;21.92;38.41;99603.29;108071;1254;73508;-66
2024/04/01 00:26:29;;;;;;;20.70;5.10;;;;;;;21.90;38.42;99592.08;108121;1254;70384;-67
2024/04/01 00:28:56;;;;;;;27.90;7.00;;;;;;;21.75;38.58;99599.56;108050;1257;71470;-68
2024/04/01 00:31:29;;;;;;;26.40;5.10;;;;;;;21.77;38.75;99592.70;107989;1257;61985;-69
2024/04/01 00:33:56;;;;;;;24.80;6.40;;;;;;;21.39;39.26;99601.86;107945;1260;61135;-70
2024/04/01 00:36:25;;;;;;;31.00;6.40;;;;;;;21.66;38.93;99600.39;108060;1254;74639;-69
2024/04/01 00:38:55;;;;;;;25.10;6.40;;;;;;;21.57;39.02;99593.50;108001;1255;69815;-70
2024/04/01 00:41:24;;;;;;;32.00;7.40;;;;;;;21.58;39.14;99603.07;107929;1255;72450;-68
2024/04/01 00:43:51;;;;;;;45.40;7.10;;;;;;;21.59;39.08;99599.37;108000;1254;63545;-67
2024/04/01 00:46:18;;;;;;;27.40;5.20;;;;;;;21.63;39.02;99597.23;108017;1254;61109;-67
2024/04/01 00:48:47;;;;;;;33.00;6.10;;;;;;;21.53;39.14;99587.83;107979;1254;73353;-68
2024/04/01 00:51:15;;;;;;;27.40;5.80;;;;;;;21.30;39.63;99592.75;107980;1254;69353;-68
2024/04/01 00:53:43;;;;;;;22.90;4.90;;;;;;;21.06;40.19;99580.96;108017;1255;71493;-71
2024/04/01 00:56:10;;;;;;;31.20;6.40;;;;;;;21.20;39.84;99576.09;107864;1261;61649;-69
2024/04/01 00:58:37;;;;;;;32.30;5.70;;;;;;;21.39;39.45;99580.63;107974;1253;61116;-66
2024/04/01 01:01:07;;;;;;;30.90;6.30;;;;;;;21.31;39.65;99578.90;108016;1254;74672;-68
2024/04/01 01:03:34;;;;;;;28.20;5.70;;;;;;;21.42;39.50;99580.53;108032;1254;70304;-69
2024/04/01 01:06:03;;;;;;;23.20;5.90;;;;;;;21.40;39.50;99580.94;107923;1260;72691;-68
2024/04/01 01:08:30;;;;;;;25.20;6.80;;;;;;;21.50;39.28;99577.17;108054;1254;61023;-70
2024/04/01 01:10:57;;;;;;;29.70;5.80;;;;;;;21.45;39.35;99575.84;107999;1254;59976;-69
2024/04/01 01:13:25;;;;;;;42.70;6.40;;;;;;;21.31;39.68;99569.23;108041;1254;74653;-69
2024/04/01 01:15:52;;;;;;;26.80;6.00;;;;;;;21.34;39.67;99564.31;108075;1260;68993;-68
2024/04/01 01:18:20;;;;;;;28.80;5.90;;;;;;;20.98;40.32;99559.47;107842;1254;71785;-68
2024/04/01 01:20:47;;;;;;;30.60;6.60;;;;;;;21.02;40.37;99549.14;107872;1260;61420;-69
2024/04/01 01:23:14;;;;;;;27.80;6.00;;;;;;;21.06;40.29;99536.36;107991;1260;61317;-69
2024/04/01 01:25:41;;;;;;;31.60;6.00;;;;;;;20.91;40.55;99527.65;107961;1260;74642;-68
2024/04/01 01:28:09;;;;;;;35.60;5.90;;;;;;;20.89;40.37;99528.02;107931;1254;70377;-67
2024/04/01 01:30:37;;;;;;;36.10;6.80;;;;;;;20.79;40.75;99527.52;107947;1259;72635;-68
2024/04/01 01:33:05;;;;;;;28.50;6.50;;;;;;;20.88;40.64;99534.02;107941;1254;61012;-67
2024/04/01 01:35:35;;;;;;;36.50;6.60;;;;;;;20.77;40.61;99531.27;108002;1259;61234;-68
2024/04/01 01:38:02;;;;;;;27.00;5.20;;;;;;;20.47;41.35;99519.94;107884;1254;72425;-68
2024/04/01 01:40:30;;;;;;;33.80;5.60;;;;;;;20.42;41.50;99514.91;107915;1254;69758;-68
2024/04/01 01:42:57;;;;;;;29.30;5.30;;;;;;;20.44;41.27;99515.93;108044;1254;72680;-68
2024/04/01 01:45:24;;;;;;;34.80;6.20;;;;;;;20.27;41.67;99528.49;108009;1254;61584;-69
2024/04/01 01:47:52;;;;;;;37.20;5.70;;;;;;;20.56;41.06;99525.41;108085;1254;60132;-68
2024/04/01 01:50:19;;;;;;;32.90;6.80;;;;;;;20.61;41.04;99529.24;108118;1254;73420;-67
2024/04/01 01:52:46;;;;;;;35.60;6.20;;;;;;;20.46;41.29;99519.34;108111;1257;68689;-69
2024/04/01 01:55:14;;;;;;;25.00;5.50;;;;;;;20.45;41.32;99511.23;108056;1254;73540;-70
2024/04/01 01:57:41;;;;;;;30.20;5.60;;;;;;;20.45;41.47;99516.58;108065;1254;61577;-70
2024/04/01 02:00:13;;;;;;;29.30;5.20;;;;;;;20.21;41.89;99521.86;108049;1254;61123;-69
2024/04/01 02:02:41;;;;;;;22.60;5.00;;;;;;;19.96;42.36;99526.14;108043;1254;73818;-70
2024/04/01 02:05:08;;;;;;;25.60;5.60;;;;;;;19.76;42.88;99526.45;108078;1254;68701;-69
2024/04/01 02:07:36;;;;;;;32.70;5.10;;;;;;;20.08;42.20;99534.53;108112;1254;71164;-68
2024/04/01 02:10:03;;;;;;;32.40;6.00;;;;;;;20.17;42.02;99541.84;108050;1254;61650;-69
2024/04/01 02:12:32;;;;;;;22.90;5.10;;;;;;;20.03;42.37;99548.03;108054;1253;61253;-71
2024/04/01 02:14:59;;;;;;;30.50;5.80;;;;;;;20.35;41.70;99536.70;107804;1255;74625;-69
2024/04/01 02:17:27;;;;;;;24.90;5.80;;;;;;;19.97;42.41;99524.27;108038;1254;70142;-68
2024/04/01 02:19:54;;;;;;;32.90;6.60;;;;;;;19.53;43.41;99522.12;108247;1254;72369;-68
2024/04/01 02:22:22;;;;;;;34.20;7.20;;;;;;;19.77;42.93;99529.02;108241;1254;61617;-67
2024/04/01 02:24:50;;;;;;;29.60;6.60;;;;;;;19.87;42.74;99526.39;108231;1254;61252;-68
2024/04/01 02:27:17;;;;;;;26.20;6.40;;;;;;;19.95;42.52;99520.52;108194;1254;73397;-67
2024/04/01 02:29:46;;;;;;;39.30;6.60;;;;;;;19.70;43.13;99523.40;108176;1254;68690;-69
2024/04/01 02:32:14;;;;;;;27.40;5.90;;;;;;;19.93;42.67;99516.76;108305;1256;71408;-68
2024/04/01 02:34:41;;;;;;;29.90;5.80;;;;;;;19.66;43.10;99522.09;108331;1251;61608;-68
2024/04/01 02:37:08;;;;;;;32.20;6.00;;;;;;;19.70;43.10;99523.38;108114;1254;61274;-67
2024/04/01 02:39:35;;;;;;;33.20;6.00;;;;;;;19.93;42.59;99530.11;108215;1251;73037;-68
2024/04/01 02:42:03;;;;;;;34.20;6.80;;;;;;;19.86;42.75;99537.88;108243;1251;70132;-68
2024/04/01 02:44:30;;;;;;;37.60;6.40;;;;;;;20.04;42.40;99525.98;108250;1254;72817;-69
2024/04/01 02:46:58;;;;;;;32.20;6.40;;;;;;;20.10;42.27;99522.45;108321;1253;61192;-69
2024/04/01 02:49:25;;;;;;;38.70;6.80;;;;;;;20.16;42.19;99532.13;108265;1251;61170;-70
2024/04/01 02:51:53;;;;;;;28.60;6.30;;;;;;;20.15;42.04;99532.23;108329;1251;74648;-65
2024/04/01 02:54:20;;;;;;;22.50;6.10;;;;;;;20.08;42.36;99537.02;108272;1251;68895;-66
2024/04/01 02:56:47;;;;;;;26.10;5.80;;;;;;;19.99;42.62;99533.19;108149;1251;74954;-65
2024/04/01 02:59:15;;;;;;;25.60;5.90;;;;;;;20.17;42.16;99525.25;108210;1251;61819;-68
2024/04/01 03:01:42;;;;;;;26.40;6.60;;;;;;;20.09;42.29;99528.23;108261;1251;60828;-68
2024/04/01 03:04:09;;;;;;;35.10;6.30;;;;;;;20.23;41.86;99518.85;108358;1251;73354;-68
2024/04/01 03:06:36;;;;;;;38.30;6.30;;;;;;;20.22;42.06;99525.15;108367;1251;69957;-67
2024/04/01 03:09:04;;;;;;;32.80;7.30;;;;;;;20.16;42.39;99526.61;108245;1251;72230;-67
2024/04/01 03:11:32;;;;;;;34.40;6.00;;;;;;;20.27;42.10;99519.94;108144;1254;61316;-68
2024/04/01 03:13:59;;;;;;;34.90;7.20;;;;;;;20.01;42.63;99516.52;108188;1251;61116;-69
2024/04/01 03:16:26;;;;;;;29.50;6.30;;;;;;;20.03;42.40;99516.77;108333;1251;73459;-69
2024/04/01 03:18:53;;;;;;;35.30;7.50;;;;;;;19.95;42.66;99517.52;108163;1256;69288;-67
2024/04/01 03:21:21;;;;;;;23.80;5.60;;;;;;;20.01;42.58;99512.58;108295;1251;72675;-66
2024/04/01 03:23:48;;;;;;;38.70;7.90;;;;;;;19.71;43.13;99525.64;108219;1251;62220;-70
2024/04/01 03:26:19;;;;;;;28.30;6.00;;;;;;;20.09;42.36;99530.93;108159;1254;61166;-68
2024/04/01 03:28:46;;;;;;;29.80;6.90;;;;;;;19.90;42.75;99525.39;108182;1251;73773;-68
2024/04/01 03:31:13;;;;;;;30.40;6.80;;;;;;;19.84;42.85;99520.73;108228;1251;70266;-69
2024/04/01 03:33:41;;;;;;;31.00;6.90;;;;;;;19.57;43.34;99520.14;108235;1254;72705;-69
2024/04/01 03:36:08;;;;;;;28.50;6.80;;;;;;;19.51;43.72;99514.83;108154;1257;60878;-71
2024/04/01 03:38:36;;;;;;;30.40;7.20;;;;;;;19.68;43.23;99524.24;108070;1254;61599;-69
2024/04/01 03:41:03;;;;;;;30.30;7.00;;;;;;;19.61;43.37;99531.81;108091;1254;73362;-68
2024/04/01 03:43:30;;;;;;;27.30;7.20;;;;;;;19.62;43.33;99522.07;108071;1257;70347;-67
2024/04/01 03:46:01;;;;;;;38.90;7.10;;;;;;;19.59;43.50;99516.25;108060;1254;71956;-70
2024/04/01 03:48:29;;;;;;;36.70;6.70;;;;;;;19.84;42.92;99515.98;108072;1254;61407;-69
2024/04/01 03:50:57;;;;;;;29.10;6.30;;;;;;;19.73;43.18;99516.86;108123;1257;60894;-68
2024/04/01 03:53:24;;;;;;;23.40;6.80;;;;;;;19.67;43.31;99515.59;108118;1254;74602;-69
2024/04/01 03:55:51;;;;;;;34.60;6.80;;;;;;;19.75;43.11;99521.20;108112;1254;70140;-70
2024/04/01 03:58:18;;;;;;;34.80;6.20;;;;;;;19.79;42.94;99518.12;108133;1254;71475;-68
2024/04/01 04:00:46;;;;;;;34.60;7.00;;;;;;;19.76;43.12;99515.18;108115;1254;62321;-69
2024/04/01 04:03:13;;;;;;;40.50;8.20;;;;;;;19.80;42.97;99516.27;108145;1257;60982;-67
2024/04/01 04:05:42;;;;;;;38.50;7.50;;;;;;;19.79;43.03;99518.52;108073;1254;73272;-68
2024/04/01 04:08:10;;;;;;;31.70;6.60;;;;;;;19.86;42.78;99521.86;108036;1254;72827;-69
2024/04/01 04:10:37;;;;;;;36.60;7.20;;;;;;;19.81;42.88;99526.86;108041;1254;72648;-69
2024/04/01 04:13:05;;;;;;;30.40;6.90;;;;;;;19.90;42.76;99526.16;108056;1254;61832;-65
2024/04/01 04:15:32;;;;;;;37.70;6.90;;;;;;;19.90;42.76;99524.02;108102;1254;61093;-68
2024/04/01 04:17:59;;;;;;;28.10;6.40;;;;;;;19.99;42.72;99520.52;108056;1255;75092;-68
2024/04/01 04:20:26;;;;;;;32.00;7.40;;;;;;;20.07;42.46;99523.10;108063;1254;69384;-66
2024/04/01 04:22:55;;;;;;;40.70;7.60;;;;;;;20.30;42.01;99520.71;107959;1254;72240;-69
2024/04/01 04:25:22;;;;;;;35.40;7.00;;;;;;;20.34;41.98;99521.27;107739;1253;62679;-69
2024/04/01 04:27:50;;;;;;;24.60;6.30;;;;;;;20.38;41.87;99520.40;108099;1253;61176;-70
2024/04/01 04:30:17;;;;;;;31.90;7.60;;;;;;;20.12;42.46;99522.80;108096;1253;73431;-69
2024/04/01 04:32:44;;;;;;;32.70;7.90;;;;;;;20.30;42.11;99517.55;108035;1254;70514;-68
2024/04/01 04:35:13;;;;;;;32.90;7.50;;;;;;;20.45;41.87;99518.19;108041;1254;72906;-69
2024/04/01 04:37:40;;;;;;;28.30;7.10;;;;;;;20.65;41.67;99519.63;108088;1254;61150;-69
2024/04/01 04:40:14;;;;;;;35.60;7.70;;;;;;;20.75;41.36;99522.88;108057;1254;61177;-68
2024/04/01 04:42:41;;;;;;;35.00;6.90;;;;;;;20.87;41.18;99520.77;108070;1254;73428;-69
2024/04/01 04:45:09;;;;;;;32.20;8.20;;;;;;;20.93;41.04;99520.88;108131;1254;68697;-68
2024/04/01 04:47:36;;;;;;;35.40;7.30;;;;;;;20.79;41.27;99523.94;108117;1254;71354;-68
2024/04/01 04:50:04;;;;;;;32.80;7.70;;;;;;;20.61;41.48;99524.66;108094;1257;61190;-69
2024/04/01 04:52:32;;;;;;;41.30;8.50;;;;;;;20.73;41.30;99527.70;108089;1254;61234;-69
2024/04/01 04:54:59;;;;;;;33.60;6.80;;;;;;;21.11;40.64;99520.66;108044;1253;74562;-69
2024/04/01 04:57:27;;;;;;;28.30;7.80;;;;;;;21.27;40.36;99523.17;107948;1254;69934;-70
2024/04/01 04:59:54;;;;;;;31.40;7.40;;;;;;;21.37;40.31;99524.80;108071;1253;72698;-69
2024/04/01 05:02:21;;;;;;;32.10;7.70;;;;;;;21.53;39.94;99522.40;108061;1254;61731;-70
2024/04/01 05:04:49;;;;;;;38.30;7.30;;;;;;;21.69;39.68;99520.10;108062;1254;61173;-70
2024/04/01 05:07:17;;;;;;;41.40;7.10;;;;;;;21.81;39.51;99519.25;108091;1253;74731;-69
2024/04/01 05:09:44;;;;;;;37.70;6.90;;;;;;;21.73;39.64;99515.92;108153;1254;69021;-70
2024/04/01 05:12:12;;;;;;;30.90;7.00;;;;;;;21.82;39.41;99506.15;108169;1253;71782;-68
2024/04/01 05:14:39;;;;;;;30.90;7.20;;;;;;;21.98;39.18;99506.83;108204;1253;61892;-70
2024/04/01 05:17:07;;;;;;;31.50;7.20;;;;;;;22.28;38.90;99503.05;108103;1259;60506;-69
2024/04/01 05:19:34;;;;;;;28.80;6.80;;;;;;;22.54;38.24;99502.17;108184;1254;74614;-70
2024/04/01 05:22:01;;;;;;;39.80;7.80;;;;;;;22.68;37.94;99501.52;108220;1254;69556;-68
2024/04/01 05:24:28;;;;;;;42.60;7.80;;;;;;;22.64;38.02;99498.88;108189;1253;72763;-69
2024/04/01 05:26:56;;;;;;;32.70;7.00;;;;;;;22.87;37.75;99495.55;108156;1253;61257;-69
2024/04/01 05:29:23;;;;;;;41.00;7.50;;;;;;;22.95;37.57;99495.70;108171;1256;59013;-69
2024/04/01 05:31:50;;;;;;;34.10;7.60;;;;;;;23.13;37.25;99495.32;108190;1252;74659;-69
2024/04/01 05:34:20;;;;;;;31.60;7.20;;;;;;;23.25;37.18;99494.92;108153;1253;68919;-68
2024/04/01 05:36:48;;;;;;;32.00;7.70;;;;;;;23.59;36.61;99497.87;108116;1253;71962;-70
2024/04/01 05:39:15;;;;;;;37.80;7.50;;;;;;;23.73;36.22;99498.10;108147;1252;61189;-69
2024/04/01 05:41:42;;;;;;;35.80;7.90;;;;;;;23.77;36.41;99500.39;108175;1254;61083;-71
2024/04/01 05:44:11;;;;;;;28.10;6.80;;;;;;;23.93;35.99;99503.02;108126;1254;73440;-71
2024/04/01 05:46:38;;;;;;;32.30;6.30;;;;;;;24.08;35.68;99501.58;108265;1254;69405;-69
2024/04/01 05:49:05;;;;;;;39.10;7.10;;;;;;;23.73;36.11;99501.02;108248;1253;72506;-68
2024/04/01 05:51:33;;;;;;;43.70;6.70;;;;;;;23.89;35.98;99499.92;108246;1254;61128;-71
2024/04/01 05:54:00;;;;;;;38.90;7.80;;;;;;;23.99;35.86;99499.44;108127;1254;61166;-70
2024/04/01 05:56:29;;;;;;;31.60;6.50;;;;;;;24.34;35.25;99501.37;108119;1252;74647;-69
2024/04/01 05:58:57;;;;;;;32.90;7.00;;;;;;;24.74;34.55;99505.43;108219;1254;69606;-70
2024/04/01 06:01:24;;;;;;;28.30;6.10;;;;;;;24.83;34.54;99498.67;108166;1254;71447;-70
2024/04/01 06:03:51;;;;;;;35.50;6.20;;;;;;;24.84;34.40;99493.77;108157;1256;60451;-69
2024/04/01 06:06:19;;;;;;;28.30;6.00;;;;;;;25.12;34.13;99490.27;108217;1254;61118;-71
2024/04/01 06:08:47;;;;;;;32.80;7.00;;;;;;;24.75;34.35;99489.65;108138;1253;74646;-70
2024/04/01 06:11:15;;;;;;;42.00;7.40;;;;;;;24.93;34.08;99490.41;108291;1254;71805;-69
2024/04/01 06:13:44;;;;;;;28.80;6.30;;;;;;;25.08;34.06;99484.99;108179;1253;72968;-70
2024/04/01 06:16:13;;;;;;;32.20;7.00;;;;;;;25.61;33.42;99492.02;108188;1253;61361;-70
2024/04/01 06:18:40;;;;;;;32.30;6.60;;;;;;;25.85;33.12;99489.96;108250;1253;61981;-70
2024/04/01 06:21:08;;;;;;;30.30;7.20;;;;;;;25.46;33.27;99494.45;108268;1254;74982;-70
2024/04/01 06:23:35;;;;;;;34.10;8.40;;;;;;;25.28;33.38;99491.69;108318;1253;69933;-70
2024/04/01 06:26:03;;;;;;;29.60;6.80;;;;;;;25.37;33.51;99491.29;108126;1254;72592;-69
2024/04/01 06:28:30;;;;;;;38.10;6.80;;;;;;;25.38;33.47;99489.20;108225;1253;61118;-69
2024/04/01 06:30:58;;;;;;;29.10;6.60;;;;;;;25.51;33.17;99489.44;108152;1254;61216;-69
2024/04/01 06:33:25;;;;;;;28.70;5.70;;;;;;;25.52;33.30;99488.79;108032;1254;75006;-70
2024/04/01 06:36:00;;;;;;;33.40;6.60;;;;;;;25.19;33.71;99494.08;108059;1253;70740;-69
2024/04/01 06:38:27;;;;;;;41.00;7.10;;;;;;;24.96;33.93;99494.70;108002;1254;71483;-69
2024/04/01 06:40:55;;;;;;;37.70;7.70;;;;;;;24.87;34.27;99496.88;107989;1256;61126;-70
2024/04/01 06:43:23;;;;;;;31.30;6.90;;;;;;;25.10;34.08;99493.43;107990;1258;59245;-70
2024/04/01 06:45:57;;;;;;;40.30;7.90;;;;;;;25.18;34.08;99491.38;107997;1253;74669;-70
2024/04/01 06:48:25;;;;;;;35.20;7.50;;;;;;;25.82;33.31;99489.80;108028;1253;70551;-69
2024/04/01 06:50:52;;;;;;;37.10;7.00;;;;;;;26.19;32.71;99491.41;107981;1255;74921;-69
2024/04/01 06:53:20;;;;;;;33.40;7.60;;;;;;;26.36;32.32;99497.04;107987;1253;61138;-69
2024/04/01 06:55:47;;;;;;;43.40;9.80;;;;;;;26.84;31.81;99508.16;107999;1253;61100;-71
2024/04/01 06:58:15;;;;;;;32.70;7.70;;;;;;;27.12;31.17;99504.44;108020;1253;74539;-69
2024/04/01 07:00:42;;;;;;;28.70;5.90;;;;;;;27.14;31.08;99509.35;107998;1254;70204;-70
2024/04/01 07:03:10;;;;;;;47.50;10.60;;;;;;;27.28;30.76;99505.58;107976;1253;71530;-70
2024/04/01 07:05:38;;;;;;;34.60;8.20;;;;;;;27.53;30.91;99510.05;107989;1259;61233;-70
2024/04/01 07:08:05;;;;;;;35.50;9.00;;;;;;;27.93;30.27;99504.84;107990;1255;61132;-71
2024/04/01 07:10:33;;;;;;;30.40;6.90;;;;;;;27.97;29.86;99510.95;108001;1253;73920;-70
2024/04/01 07:13:00;;;;;;;34.40;8.00;;;;;;;27.87;30.23;99512.12;108041;1253;69383;-70
2024/04/01 07:15:27;;;;;;;31.10;6.70;;;;;;;28.00;29.81;99517.98;108003;1254;73338;-72
2024/04/01 07:17:54;;;;;;;28.10;6.80;;;;;;;27.93;30.26;99521.61;107919;1255;61466;-71
2024/04/01 07:20:22;;;;;;;27.10;6.40;;;;;;;28.21;29.53;99525.45;107950;1253;61304;-70
2024/04/01 07:22:50;;;;;;;32.40;6.60;;;;;;;28.23;29.45;99531.48;108096;1254;72850;-72
2024/04/01 07:25:18;;;;;;;43.20;7.50;;;;;;;28.32;29.45;99525.20;108043;1254;68992;-71
2024/04/01 07:27:45;;;;;;;40.10;6.10;;;;;;;28.53;29.30;99522.09;108023;1253;74887;-71
2024/04/01 07:30:15;;;;;;;28.90;6.10;;;;;;;28.90;28.84;99522.82;108099;1254;61243;-70
2024/04/01 07:32:42;;;;;;;31.70;7.10;;;;;;;28.82;28.67;99522.73;108042;1253;59974;-71
2024/04/01 07:35:11;;;;;;;32.10;6.60;;;;;;;28.91;28.44;99517.46;108134;1254;74937;-69
2024/04/01 07:37:41;;;;;;;29.70;7.10;;;;;;;28.92;28.49;99517.26;108217;1253;70136;-70
2024/04/01 07:40:08;;;;;;;38.50;7.70;;;;;;;29.21;28.03;99515.40;108125;1253;75797;-70
2024/04/01 07:42:36;;;;;;;33.40;8.10;;;;;;;29.60;27.83;99508.23;107986;1254;61211;-71
2024/04/01 07:45:05;;;;;;;37.00;7.60;;;;;;;30.18;27.64;99504.64;107918;1253;168512;-71
2024/04/01 07:48:41;;;;;;;33.90;6.90;;;;;;;29.42;28.17;99499.59;104901;1292;600336;-71
2024/04/01 07:51:09;;;;;;;41.10;8.10;;;;;;;30.90;26.18;99491.98;108012;1253;62156;-70
2024/04/01 07:53:36;;;;;;;35.80;7.50;;;;;;;30.92;26.29;99493.13;108062;1253;59456;-69
2024/04/01 07:56:03;;;;;;;44.20;7.60;;;;;;;30.86;26.32;99487.20;108035;1252;75227;-69
2024/04/01 07:58:31;;;;;;;45.80;7.90;;;;;;;30.92;26.19;99496.58;108067;1254;70495;-71
2024/04/01 08:01:04;;;;;;;26.70;6.40;;;;;;;30.73;26.28;99494.20;108025;1253;74953;-71
2024/04/01 08:03:31;;;;;;;35.90;7.40;;;;;;;30.67;26.41;99497.91;108154;1250;60558;-70
2024/04/01 08:05:59;;;;;;;32.90;6.70;;;;;;;30.74;26.27;99500.41;108225;1250;61025;-70
2024/04/01 08:08:26;;;;;;;39.80;7.10;;;;;;;30.57;26.50;99501.41;108166;1250;74737;-71
2024/04/01 08:10:54;;;;;;;31.10;6.70;;;;;;;30.89;26.22;99503.48;108185;1250;72639;-71
2024/04/01 08:13:21;;;;;;;27.90;6.50;;;;;;;30.89;26.37;99504.60;108168;1251;72065;-70
2024/04/01 08:15:59;;;;;;;33.20;7.50;;;;;;;31.08;26.02;99507.36;108184;1250;62340;-69
2024/04/01 08:18:27;;;;;;;34.10;7.90;;;;;;;31.31;25.70;99503.56;108233;1250;60410;-70
2024/04/01 08:20:56;;;;;;;36.60;8.40;;;;;;;31.28;26.00;99506.68;108261;1250;73243;-71
2024/04/01 08:23:23;;;;;;;35.60;7.30;;;;;;;31.32;25.40;99503.82;108224;1250;70115;-70
2024/04/01 08:25:51;;;;;;;36.80;7.30;;;;;;;31.21;25.65;99502.91;108225;1251;72784;-69
2024/04/01 08:28:18;;;;;;;41.60;8.10;;;;;;;31.47;25.46;99502.67;108253;1251;62333;-69
2024/04/01 08:30:46;;;;;;;35.10;7.20;;;;;;;31.61;25.26;99507.67;108221;1250;60598;-69
2024/04/01 08:33:13;;;;;;;34.40;6.40;;;;;;;31.59;25.39;99508.30;108180;1252;74160;-71
2024/04/01 08:35:40;;;;;;;35.00;8.10;;;;;;;31.74;25.12;99511.48;108303;1257;69335;-70
2024/04/01 08:38:08;;;;;;;30.50;6.60;;;;;;;31.77;25.46;99512.16;108312;1251;74815;-71
2024/04/01 08:40:42;;;;;;;29.10;7.70;;;;;;;32.06;25.28;99506.30;108279;1254;61017;-70
2024/04/01 08:43:14;;;;;;;30.50;6.90;;;;;;;32.25;24.88;99508.55;108254;1251;60840;-71
2024/04/01 08:45:42;;;;;;;36.70;8.00;;;;;;;32.36;24.77;99508.46;108237;1252;75771;-71
2024/04/01 08:48:12;;;;;;;41.10;7.30;;;;;;;32.16;24.82;99511.16;108238;1251;70322;-70
2024/04/01 08:50:46;;;;;;;38.20;6.70;;;;;;;31.82;24.82;99508.05;108280;1255;73048;-70
2024/04/01 08:53:21;;;;;;;39.90;7.80;;;;;;;32.04;25.07;99502.48;108278;1254;62200;-70
2024/04/01 08:55:48;;;;;;;40.40;8.40;;;;;;;32.12;25.02;99506.23;108319;1251;60432;-70
2024/04/01 08:58:16;;;;;;;41.20;8.00;;;;;;;32.15;24.77;99504.27;108165;1250;73987;-70
2024/04/01 09:00:43;;;;;;;30.90;8.30;;;;;;;32.36;24.92;99505.07;108169;1251;70128;-70
2024/04/01 09:03:10;;;;;;;43.20;8.40;;;;;;;32.24;25.03;99502.15;108317;1255;72756;-70
2024/04/01 09:05:38;;;;;;;38.00;7.60;;;;;;;32.36;24.80;99498.52;108338;1254;60354;-69
2024/04/01 09:08:05;;;;;;;37.40;7.10;;;;;;;32.43;24.61;99492.96;108358;1251;59814;-72
2024/04/01 09:10:33;;;;;;;31.40;6.40;;;;;;;32.49;24.64;99492.54;108363;1256;75965;-71
2024/04/01 09:13:00;;;;;;;37.50;7.80;;;;;;;32.54;24.69;99490.70;108308;1257;70441;-69
2024/04/01 09:15:27;;;;;;;37.20;7.30;;;;;;;32.48;24.44;99485.33;108101;1251;71582;-70
2024/04/01 09:17:55;;;;;;;28.70;6.80;;;;;;;32.35;24.42;99482.27;108104;1251;60430;-70
2024/04/01 09:20:23;;;;;;;39.70;8.00;;;;;;;32.33;24.33;99478.11;108332;1251;61002;-69
2024/04/01 09:22:50;;;;;;;40.40;7.30;;;;;;;32.61;24.24;99475.98;108331;1253;73738;-71
2024/04/01 09:25:19;;;;;;;41.80;6.70;;;;;;;32.71;24.12;99476.02;108157;1252;70221;-71
2024/04/01 09:27:47;;;;;;;49.60;7.70;;;;;;;32.52;24.21;99471.61;108284;1253;71669;-70
2024/04/01 09:30:15;;;;;;;40.60;7.60;;;;;;;32.40;24.30;99468.66;108280;1256;61000;-70
2024/04/01 09:32:43;;;;;;;43.70;8.40;;;;;;;32.62;24.29;99468.02;108284;1256;60176;-71
2024/04/01 09:35:11;;;;;;;35.40;6.90;;;;;;;32.94;24.01;99473.60;108260;1251;72745;-70
2024/04/01 09:37:38;;;;;;;47.80;7.40;;;;;;;33.10;24.20;99470.33;108184;1259;71094;-69
2024/04/01 09:40:06;;;;;;;41.80;7.60;;;;;;;33.05;23.66;99473.38;107953;1256;62946;-70
2024/04/01 09:42:34;;;;;;;50.20;8.70;;;;;;;33.05;23.42;99472.02;108265;1256;60604;-70
2024/04/01 09:45:04;;;;;;;35.00;7.40;;;;;;;33.98;23.12;99469.11;108018;1251;61296;-71
2024/04/01 09:47:37;;;;;;;34.60;6.80;;;;;;;34.06;22.80;99464.02;108134;1253;76006;-70
2024/04/01 09:50:05;;;;;;;35.90;6.80;;;;;;;33.47;23.19;99463.15;108130;1254;70533;-70
2024/04/01 09:52:33;;;;;;;38.90;7.10;;;;;;;33.30;23.27;99463.57;108125;1254;71725;-70
2024/04/01 09:55:04;;;;;;;48.80;7.40;;;;;;;33.10;23.33;99462.22;108196;1258;60325;-72
2024/04/01 09:58:10;;;;;;;55.20;8.10;;;;;;;32.65;23.75;99458.77;108171;1251;62364;-70
2024/04/01 10:01:17;;;;;;;47.20;8.10;;;;;;;33.22;23.50;99451.13;108160;1256;72643;-70
2024/04/01 10:04:03;;;;;;;56.80;8.20;;;;;;;33.05;23.76;99453.87;108144;1257;71138;-71
2024/04/01 10:06:59;;;;;;;42.20;7.10;;;;;;;33.11;23.56;99453.34;108192;1256;71650;-71
2024/04/01 10:09:48;;;;;;;41.70;7.80;;;;;;;33.19;23.85;99451.36;108112;1254;59278;-71
2024/04/01 10:12:34;;;;;;;46.80;8.40;;;;;;;33.23;23.38;99448.27;108092;1252;60553;-71
2024/04/01 10:15:29;;;;;;;40.10;8.00;;;;;;;33.17;23.27;99448.34;108102;1251;76067;-71
2024/04/01 10:18:16;;;;;;;36.60;7.30;;;;;;;33.32;23.42;99442.19;108138;1251;69017;-72
2024/04/01 10:21:07;;;;;;;46.10;8.00;;;;;;;33.26;23.58;99439.69;108068;1254;74878;-71
2024/04/01 10:23:47;;;;;;;38.70;8.30;;;;;;;33.20;23.24;99439.34;108119;1251;62463;-71
2024/04/01 10:26:48;;;;;;;46.90;7.70;;;;;;;33.32;23.13;99435.67;108114;1251;60457;-71
2024/04/01 10:29:41;;;;;;;32.20;7.40;;;;;;;33.66;23.32;99426.45;108289;1251;67164;-70
2024/04/01 10:32:18;;;;;;;37.50;8.50;;;;;;;33.71;23.65;99420.59;108095;1256;61665;-71
2024/04/01 10:35:08;;;;;;;44.20;8.20;;;;;;;33.35;23.79;99430.62;108172;1259;65996;-71
2024/04/01 10:38:04;;;;;;;40.70;7.30;;;;;;;32.83;24.74;99425.80;108296;1256;60404;-70
2024/04/01 10:41:09;;;;;;;48.30;8.60;;;;;;;33.27;24.57;99420.08;108337;1251;62204;-71
2024/04/01 10:44:14;;;;;;;31.70;6.70;;;;;;;33.31;24.76;99421.42;108338;1251;76127;-71
2024/04/01 10:47:00;;;;;;;49.50;9.20;;;;;;;33.59;24.54;99418.34;108340;1251;69162;-70
2024/04/01 10:49:44;;;;;;;48.40;8.00;;;;;;;33.90;24.67;99414.80;108305;1251;73669;-71
2024/04/01 10:52:14;;;;;;;45.10;8.00;;;;;;;34.03;24.50;99420.23;108212;1257;60651;-72
2024/04/01 10:55:00;;;;;;;42.00;8.10;;;;;;;34.04;24.02;99415.55;108329;1254;60478;-72
2024/04/01 10:58:09;;;;;;;43.00;7.70;;;;;;;33.98;24.23;99413.08;108435;1251;65417;-71
2024/04/01 11:01:10;;;;;;;47.20;7.60;;;;;;;33.68;24.57;99417.36;108518;1251;61968;-71
2024/04/01 11:04:04;;;;;;;58.20;9.20;;;;;;;33.32;25.00;99414.94;108446;1256;64051;-70
2024/04/01 11:06:59;;;;;;;40.50;8.40;;;;;;;33.42;25.10;99408.31;108187;1251;60367;-71
2024/04/01 11:09:38;;;;;;;33.30;7.80;;;;;;;33.30;25.11;99405.17;108351;1251;62180;-72
2024/04/01 11:12:19;;;;;;;49.60;9.90;;;;;;;33.09;25.27;99405.71;108286;1251;72736;-72
2024/04/01 11:14:49;;;;;;;40.40;7.40;;;;;;;33.02;25.29;99407.56;108363;1251;61695;-72
2024/04/01 11:17:17;;;;;;;45.90;8.00;;;;;;;32.88;25.43;99403.95;108421;1250;72365;-72
2024/04/01 11:20:07;;;;;;;39.80;7.80;;;;;;;32.53;25.94;99398.73;108297;1257;62393;-72
2024/04/01 11:22:48;;;;;;;37.50;7.50;;;;;;;32.75;25.84;99391.79;108328;1250;60393;-71
2024/04/01 11:25:42;;;;;;;42.20;8.30;;;;;;;32.98;25.65;99393.28;108315;1251;72225;-70
2024/04/01 11:28:34;;;;;;;37.30;8.20;;;;;;;33.15;25.51;99393.45;108318;1251;72631;-69
2024/04/01 11:31:13;;;;;;;52.10;9.40;;;;;;;33.45;25.04;99387.75;108362;1250;64962;-72
2024/04/01 11:33:43;;;;;;;49.70;8.90;;;;;;;33.61;25.05;99382.42;108364;1251;61583;-71